createdAt,value
2022-12-27T00:02:42.338Z,10.90
2022-12-27T00:07:44.567Z,8.20
2022-12-27T00:12:50.438Z,8.60
2022-12-27T00:17:52.238Z,9.30
2022-12-27T00:22:53.910Z,9.10
2022-12-27T00:27:55.693Z,7.00
2022-12-27T00:32:58.059Z,11.30
2022-12-27T00:37:59.911Z,8.60
2022-12-27T00:43:01.606Z,9.70
2022-12-27T00:48:07.099Z,10.30
2022-12-27T00:53:10.269Z,11.80
2022-12-27T00:58:12.089Z,9.90
2022-12-27T01:03:14.870Z,10.00
2022-12-27T01:08:16.589Z,8.30
2022-12-27T01:13:18.304Z,7.60
2022-12-27T01:18:20.172Z,8.60
2022-12-27T01:23:21.988Z,10.50
2022-12-27T01:28:23.722Z,6.30
2022-12-27T01:33:25.420Z,7.00
2022-12-27T01:38:27.091Z,5.50
2022-12-27T01:43:38.889Z,8.40
2022-12-27T01:48:41.233Z,6.70
2022-12-27T01:53:47.802Z,7.40
2022-12-27T01:59:01.394Z,7.50
2022-12-27T02:04:14.917Z,7.30
2022-12-27T02:09:21.055Z,9.30
2022-12-27T02:14:42.672Z,7.90
2022-12-27T02:20:03.015Z,7.80
2022-12-27T02:25:28.199Z,7.60
2022-12-27T02:30:33.756Z,6.80
2022-12-27T02:35:44.089Z,6.30
2022-12-27T02:46:36.316Z,6.70
2022-12-27T02:52:13.554Z,6.60
2022-12-27T02:57:18.294Z,5.50
2022-12-27T03:02:54.391Z,4.50
2022-12-27T03:08:11.681Z,4.20
2022-12-27T03:13:47.472Z,2.10
2022-12-27T03:19:02.755Z,2.30
2022-12-27T03:24:25.317Z,2.30
2022-12-27T03:29:46.435Z,1.10
2022-12-27T03:34:55.029Z,0.30
2022-12-27T03:40:03.630Z,0.50
2022-12-27T03:45:06.221Z,0.80
2022-12-27T03:50:16.094Z,0.50
2022-12-27T03:55:18.020Z,1.00
2022-12-27T04:00:20.002Z,0.70
2022-12-27T04:05:23.163Z,1.10
2022-12-27T04:10:43.906Z,2.10
2022-12-27T04:16:04.498Z,1.50
2022-12-27T04:21:25.061Z,4.20
2022-12-27T04:26:45.575Z,1.80
2022-12-27T04:32:06.363Z,2.80
2022-12-27T04:37:10.081Z,3.30
2022-12-27T04:42:30.889Z,3.10
2022-12-27T04:47:51.945Z,3.50
2022-12-27T04:53:12.662Z,4.00
2022-12-27T04:58:14.524Z,5.40
2022-12-27T05:03:19.118Z,2.60
2022-12-27T05:08:40.044Z,3.40
2022-12-27T05:14:00.202Z,6.10
2022-12-27T05:24:23.736Z,3.50
2022-12-27T05:29:25.430Z,5.50
2022-12-27T05:34:27.141Z,4.30
2022-12-27T05:39:28.867Z,5.10
2022-12-27T05:44:30.539Z,3.90
2022-12-27T05:49:32.224Z,4.40
2022-12-27T05:54:33.907Z,2.90
2022-12-27T05:59:35.663Z,4.00
2022-12-27T06:04:37.533Z,5.80
2022-12-27T06:09:40.339Z,6.20
2022-12-27T06:14:42.198Z,4.20
2022-12-27T06:19:43.929Z,7.50
2022-12-27T06:24:45.655Z,4.90
2022-12-27T06:29:47.556Z,7.00
2022-12-27T06:34:49.290Z,6.30
2022-12-27T06:39:51.338Z,11.00
2022-12-27T06:44:53.148Z,6.70
2022-12-27T06:49:55.913Z,6.00
2022-12-27T06:54:57.764Z,7.10
2022-12-27T06:59:59.646Z,7.50
2022-12-27T07:05:01.535Z,6.00
2022-12-27T07:10:03.980Z,5.60
2022-12-27T07:15:06.805Z,8.40
2022-12-27T07:20:09.286Z,5.40
2022-12-27T07:25:11.011Z,3.10
2022-12-27T07:30:12.977Z,4.50
2022-12-27T07:35:14.901Z,7.30
2022-12-27T07:40:16.801Z,3.50
2022-12-27T07:45:19.851Z,6.20
2022-12-27T07:50:21.871Z,7.70
2022-12-27T07:55:23.667Z,3.00
2022-12-27T08:00:25.399Z,9.60
2022-12-27T08:05:28.066Z,5.50
2022-12-27T08:10:29.929Z,5.90
2022-12-27T08:15:31.951Z,9.40
2022-12-27T08:20:33.730Z,5.20
2022-12-27T08:25:35.438Z,4.70
2022-12-27T08:30:39.312Z,5.60
2022-12-27T08:35:52.837Z,8.70
2022-12-27T08:40:55.453Z,4.30
2022-12-27T08:46:05.624Z,4.20
2022-12-27T08:51:12.612Z,5.60
2022-12-27T08:56:16.475Z,9.70
2022-12-27T09:01:19.075Z,4.40
2022-12-27T09:06:23.610Z,7.80
2022-12-27T09:11:28.426Z,5.20
2022-12-27T09:16:30.634Z,4.90
2022-12-27T09:21:34.127Z,6.80
2022-12-27T09:26:36.103Z,6.50
2022-12-27T09:31:37.850Z,8.00
2022-12-27T09:36:40.745Z,3.60
2022-12-27T09:47:53.651Z,6.40
2022-12-27T09:53:17.634Z,4.20
2022-12-27T09:58:32.887Z,4.50
2022-12-27T10:03:34.808Z,5.00
2022-12-27T10:08:50.324Z,2.90
2022-12-27T10:14:01.919Z,5.50
2022-12-27T10:19:18.664Z,2.00
2022-12-27T10:24:30.508Z,4.00
2022-12-27T10:29:33.173Z,4.50
2022-12-27T10:34:34.940Z,4.40
2022-12-27T10:39:38.699Z,4.50
2022-12-27T10:44:40.590Z,4.40
2022-12-27T10:50:01.013Z,4.60
2022-12-27T11:00:52.445Z,6.10
2022-12-27T11:06:01.045Z,3.20
2022-12-27T11:11:26.800Z,2.80
2022-12-27T11:16:31.470Z,11.00
2022-12-27T11:21:38.696Z,5.00
2022-12-27T11:26:53.691Z,3.40
2022-12-27T11:31:57.134Z,1.90
2022-12-27T11:37:16.184Z,2.10
2022-12-27T11:42:32.595Z,2.00
2022-12-27T11:47:53.513Z,2.90
2022-12-27T11:53:20.180Z,2.40
2022-12-27T11:58:46.983Z,2.50
2022-12-27T12:04:07.703Z,4.00
2022-12-27T12:09:30.204Z,6.20
2022-12-27T12:14:50.732Z,1.10
2022-12-27T12:20:17.497Z,0.90
2022-12-27T12:25:47.757Z,1.30
2022-12-27T12:31:15.147Z,4.70
2022-12-27T12:36:54.423Z,5.60
2022-12-27T12:42:19.899Z,3.50
2022-12-27T12:47:59.223Z,6.10
2022-12-27T12:53:43.350Z,4.20
2022-12-27T12:59:16.499Z,2.30
2022-12-27T13:04:41.320Z,1.70
2022-12-27T13:09:58.292Z,5.10
2022-12-27T13:15:09.095Z,1.40
2022-12-27T13:20:41.478Z,4.90
2022-12-27T13:25:50.228Z,2.40
2022-12-27T13:31:24.701Z,3.20
2022-12-27T13:36:41.014Z,4.60
2022-12-27T13:41:53.980Z,4.00
2022-12-27T13:47:07.906Z,3.60
2022-12-27T13:52:21.938Z,4.30
2022-12-27T13:57:58.123Z,2.60
2022-12-27T14:03:14.534Z,3.80
2022-12-27T14:08:19.104Z,3.50
2022-12-27T14:13:34.644Z,5.50
2022-12-27T14:18:42.752Z,2.90
2022-12-27T14:24:09.544Z,2.70
2022-12-27T14:29:45.986Z,2.10
2022-12-27T14:35:00.180Z,2.60
2022-12-27T14:40:37.456Z,2.80
2022-12-27T14:45:58.127Z,4.60
2022-12-27T14:57:15.221Z,3.60
2022-12-27T15:02:39.067Z,2.60
2022-12-27T15:08:02.347Z,2.60
2022-12-27T15:13:19.115Z,4.10
2022-12-27T15:18:26.956Z,1.50
2022-12-27T15:23:40.805Z,4.40
2022-12-27T15:29:14.148Z,6.00
2022-12-27T15:34:34.624Z,4.00
2022-12-27T15:39:36.357Z,7.90
2022-12-27T15:45:06.494Z,5.80
2022-12-27T15:50:26.907Z,6.40
2022-12-27T16:00:34.292Z,5.60
2022-12-27T16:05:44.786Z,3.70
2022-12-27T16:10:49.378Z,6.00
2022-12-27T16:15:55.272Z,5.20
2022-12-27T16:20:58.337Z,6.00
2022-12-27T16:26:02.043Z,5.80
2022-12-27T16:31:11.696Z,3.50
2022-12-27T16:36:20.702Z,2.90
2022-12-27T16:41:56.966Z,3.40
2022-12-27T16:47:27.405Z,7.40
2022-12-27T16:53:10.990Z,3.90
2022-12-27T16:58:31.129Z,9.00
2022-12-27T17:03:35.763Z,3.70
2022-12-27T17:08:37.499Z,4.50
2022-12-27T17:13:48.671Z,3.50
2022-12-27T17:19:02.698Z,5.00
2022-12-27T17:24:15.950Z,3.80
2022-12-27T17:29:46.733Z,4.10
2022-12-27T17:34:54.951Z,5.50
2022-12-27T17:40:24.776Z,4.90
2022-12-27T17:46:07.640Z,6.20
2022-12-27T17:51:13.048Z,6.50
2022-12-27T17:56:37.422Z,4.80
2022-12-27T18:01:51.918Z,10.00
2022-12-27T18:06:59.550Z,5.20
2022-12-27T18:12:11.264Z,8.10
2022-12-27T18:17:32.898Z,7.60
2022-12-27T18:22:34.769Z,4.20
2022-12-27T18:27:36.519Z,4.80
2022-12-27T18:32:38.249Z,4.40
2022-12-27T18:37:40.690Z,5.80
2022-12-27T18:42:49.274Z,7.00
2022-12-27T18:47:54.163Z,7.30
2022-12-27T18:53:03.452Z,4.30
2022-12-27T18:58:36.237Z,4.70
2022-12-27T19:03:40.875Z,5.00
2022-12-27T19:08:53.095Z,8.30
2022-12-27T19:14:01.569Z,4.70
2022-12-27T19:19:10.466Z,6.00
2022-12-27T19:24:24.307Z,4.60
2022-12-27T19:29:29.118Z,4.80
2022-12-27T19:34:38.857Z,7.30
2022-12-27T19:39:42.491Z,4.30
2022-12-27T19:44:44.535Z,5.30
2022-12-27T19:49:46.313Z,6.20
2022-12-27T19:54:49.885Z,6.40
2022-12-27T19:59:51.654Z,7.40
2022-12-27T20:04:54.588Z,7.50
2022-12-27T20:09:56.454Z,8.40
2022-12-27T20:14:58.204Z,5.70
2022-12-27T20:19:59.981Z,8.40
2022-12-27T20:25:02.449Z,7.50
2022-12-27T20:30:05.243Z,6.40
2022-12-27T20:35:09.763Z,7.00
2022-12-27T20:40:11.614Z,5.30
2022-12-27T20:45:13.378Z,8.40
2022-12-27T20:50:15.122Z,7.80
2022-12-27T20:55:16.942Z,9.40
2022-12-27T21:00:18.650Z,8.20
2022-12-27T21:05:20.415Z,7.90
2022-12-27T21:10:22.096Z,6.60
2022-12-27T21:15:24.119Z,9.80
2022-12-27T21:20:25.869Z,8.60
2022-12-27T21:25:27.602Z,7.90
2022-12-27T21:30:29.385Z,10.00
2022-12-27T21:35:31.138Z,5.40
2022-12-27T21:40:32.953Z,11.30
2022-12-27T21:45:35.411Z,8.60
2022-12-27T21:50:37.652Z,7.20
2022-12-27T21:55:39.395Z,8.60
2022-12-27T22:00:41.088Z,6.90
2022-12-27T22:05:42.863Z,9.00
2022-12-27T22:10:45.352Z,8.70
2022-12-27T22:16:02.412Z,6.80
2022-12-27T22:21:07.001Z,6.90
2022-12-27T22:26:11.923Z,7.30
2022-12-27T22:31:19.657Z,8.60
2022-12-27T22:36:23.842Z,5.50
2022-12-27T22:41:31.392Z,6.20
2022-12-27T22:51:56.141Z,9.20
2022-12-27T22:56:57.989Z,8.00
2022-12-27T23:02:00.524Z,9.50
2022-12-27T23:07:02.379Z,9.90
2022-12-27T23:12:04.445Z,10.20
2022-12-27T23:17:06.332Z,7.70
2022-12-27T23:22:08.004Z,6.40
2022-12-27T23:27:09.740Z,6.90
2022-12-27T23:32:11.448Z,8.50
2022-12-27T23:37:13.235Z,6.70
2022-12-27T23:42:14.995Z,6.10
2022-12-27T23:47:16.817Z,7.50
2022-12-27T23:52:18.569Z,10.00
2022-12-27T23:57:22.781Z,9.50
